createdAt,value
2023-02-03T00:01:44.144Z,8.99
2023-02-03T00:04:10.698Z,9.33
2023-02-03T00:06:37.410Z,9.49
2023-02-03T00:09:04.201Z,9.54
2023-02-03T00:11:32.393Z,9.61
2023-02-03T00:13:59.118Z,9.39
2023-02-03T00:16:25.677Z,9.51
2023-02-03T00:18:52.338Z,9.38
2023-02-03T00:21:18.984Z,9.46
2023-02-03T00:23:45.727Z,9.58
2023-02-03T00:26:14.776Z,9.48
2023-02-03T00:28:43.226Z,9.40
2023-02-03T00:31:18.310Z,9.45
2023-02-03T00:33:46.463Z,8.95
2023-02-03T00:36:13.818Z,9.10
2023-02-03T00:38:40.569Z,9.51
2023-02-03T00:41:07.422Z,9.54
2023-02-03T00:43:34.198Z,8.94
2023-02-03T00:46:01.007Z,9.30
2023-02-03T00:48:27.579Z,9.48
2023-02-03T00:50:54.112Z,9.50
2023-02-03T00:53:20.626Z,9.43
2023-02-03T00:55:47.215Z,9.50
2023-02-03T00:58:13.742Z,9.31
2023-02-03T01:00:40.375Z,8.92
2023-02-03T01:03:07.111Z,9.02
2023-02-03T01:05:33.640Z,8.93
2023-02-03T01:08:01.049Z,9.39
2023-02-03T01:10:28.760Z,9.31
2023-02-03T01:12:55.522Z,9.45
2023-02-03T01:15:22.067Z,9.49
2023-02-03T01:17:48.704Z,9.13
2023-02-03T01:20:17.016Z,9.40
2023-02-03T01:22:43.797Z,9.54
2023-02-03T01:25:10.485Z,9.14
2023-02-03T01:27:37.674Z,9.51
2023-02-03T01:30:04.869Z,9.62
2023-02-03T01:32:31.515Z,9.37
2023-02-03T01:34:58.139Z,9.51
2023-02-03T01:37:24.714Z,9.00
2023-02-03T01:39:51.246Z,9.43
2023-02-03T01:42:17.835Z,9.42
2023-02-03T01:44:47.656Z,9.67
2023-02-03T01:47:23.538Z,9.30
2023-02-03T01:49:59.843Z,9.57
2023-02-03T01:52:27.923Z,9.70
2023-02-03T01:54:58.803Z,9.60
2023-02-03T01:57:33.831Z,9.41
2023-02-03T02:00:02.876Z,9.26
2023-02-03T02:02:42.155Z,9.47
2023-02-03T02:05:15.120Z,9.66
2023-02-03T02:07:43.434Z,9.04
2023-02-03T02:10:10.875Z,9.59
2023-02-03T02:12:37.655Z,9.30
2023-02-03T02:15:05.178Z,9.58
2023-02-03T02:18:15.571Z,9.63
2023-02-03T02:21:12.384Z,8.92
2023-02-03T02:24:24.284Z,9.73
2023-02-03T02:27:00.413Z,9.17
2023-02-03T02:29:53.136Z,9.65
2023-02-03T02:32:45.292Z,9.70
2023-02-03T02:35:19.880Z,9.74
2023-02-03T02:38:00.745Z,9.57
2023-02-03T02:40:38.708Z,9.67
2023-02-03T02:43:31.742Z,9.68
2023-02-03T02:46:03.775Z,9.66
2023-02-03T02:48:45.307Z,9.18
2023-02-03T02:51:14.548Z,9.65
2023-02-03T02:53:47.289Z,9.65
2023-02-03T02:56:16.357Z,9.69
2023-02-03T02:58:47.122Z,9.63
2023-02-03T03:01:14.301Z,9.57
2023-02-03T03:03:44.447Z,9.21
2023-02-03T03:06:21.852Z,9.71
2023-02-03T03:08:55.526Z,9.61
2023-02-03T03:11:26.095Z,9.27
2023-02-03T03:13:54.536Z,9.78
2023-02-03T03:16:33.201Z,9.61
2023-02-03T03:19:05.242Z,9.65
2023-02-03T03:21:38.373Z,9.68
2023-02-03T03:24:10.817Z,9.54
2023-02-03T03:26:55.947Z,9.43
2023-02-03T03:29:30.260Z,9.87
2023-02-03T03:31:58.432Z,9.30
2023-02-03T03:34:25.119Z,9.31
2023-02-03T03:37:09.580Z,9.74
2023-02-03T03:39:54.035Z,9.93
2023-02-03T03:42:27.428Z,9.00
2023-02-03T03:45:06.026Z,9.82
2023-02-03T03:47:58.853Z,9.48
2023-02-03T03:50:29.907Z,9.40
2023-02-03T03:53:00.381Z,9.94
2023-02-03T03:55:31.272Z,9.74
2023-02-03T03:58:06.401Z,9.49
2023-02-03T04:00:35.474Z,9.93
2023-02-03T04:03:19.371Z,10.00
2023-02-03T04:05:46.257Z,9.82
2023-02-03T04:08:12.953Z,9.76
2023-02-03T04:10:42.492Z,9.58
2023-02-03T04:13:10.997Z,9.66
2023-02-03T04:15:38.127Z,9.93
2023-02-03T04:18:05.275Z,9.85
2023-02-03T04:20:32.662Z,9.85
2023-02-03T04:22:59.732Z,9.99
2023-02-03T04:25:26.753Z,10.10
2023-02-03T04:27:53.367Z,9.78
2023-02-03T04:30:19.918Z,9.60
2023-02-03T04:32:46.914Z,10.01
2023-02-03T04:35:13.920Z,9.99
2023-02-03T04:37:40.833Z,9.91
2023-02-03T04:40:08.293Z,9.63
2023-02-03T04:42:37.874Z,9.89
2023-02-03T04:45:06.327Z,9.82
2023-02-03T04:47:32.970Z,9.98
2023-02-03T04:50:00.387Z,10.02
2023-02-03T04:52:27.108Z,10.01
2023-02-03T04:54:53.693Z,9.91
2023-02-03T04:57:20.468Z,10.08
2023-02-03T04:59:47.019Z,9.68
2023-02-03T05:02:13.605Z,10.05
2023-02-03T05:04:40.100Z,9.87
2023-02-03T05:07:06.635Z,9.91
2023-02-03T05:09:33.213Z,10.05
2023-02-03T05:11:59.721Z,9.99
2023-02-03T05:14:26.373Z,10.06
2023-02-03T05:16:52.948Z,9.87
2023-02-03T05:19:19.591Z,9.96
2023-02-03T05:21:46.145Z,9.83
2023-02-03T05:24:12.753Z,9.89
2023-02-03T05:26:39.378Z,9.92
2023-02-03T05:29:05.957Z,9.91
2023-02-03T05:31:33.540Z,10.07
2023-02-03T05:34:00.233Z,9.91
2023-02-03T05:36:26.818Z,9.98
2023-02-03T05:38:53.358Z,9.96
2023-02-03T05:41:38.709Z,10.09
2023-02-03T05:44:05.268Z,9.39
2023-02-03T05:46:31.766Z,9.98
2023-02-03T05:48:58.314Z,9.98
2023-02-03T05:51:25.200Z,9.85
2023-02-03T05:53:53.008Z,10.05
2023-02-03T05:56:19.590Z,10.09
2023-02-03T05:58:46.075Z,10.07
2023-02-03T06:01:12.671Z,10.00
2023-02-03T06:03:39.378Z,9.95
2023-02-03T06:06:06.040Z,10.06
2023-02-03T06:08:32.647Z,9.93
2023-02-03T06:11:00.676Z,9.50
2023-02-03T06:13:27.912Z,9.87
2023-02-03T06:15:54.869Z,9.56
2023-02-03T06:18:21.545Z,10.04
2023-02-03T06:20:48.084Z,10.05
2023-02-03T06:23:17.038Z,10.04
2023-02-03T06:25:43.737Z,9.98
2023-02-03T06:28:10.467Z,9.38
2023-02-03T06:30:37.197Z,9.94
2023-02-03T06:33:03.842Z,9.95
2023-02-03T06:35:30.562Z,9.46
2023-02-03T06:37:57.096Z,9.87
2023-02-03T06:40:23.649Z,9.82
2023-02-03T06:42:51.122Z,9.97
2023-02-03T06:45:18.092Z,9.81
2023-02-03T06:47:45.861Z,10.03
2023-02-03T06:50:15.759Z,9.88
2023-02-03T06:52:42.428Z,9.81
2023-02-03T06:55:09.596Z,9.78
2023-02-03T06:57:36.171Z,9.93
2023-02-03T07:00:03.316Z,9.67
2023-02-03T07:02:29.912Z,9.93
2023-02-03T07:04:56.563Z,9.68
2023-02-03T07:07:23.094Z,9.92
2023-02-03T07:09:49.636Z,9.79
2023-02-03T07:12:16.230Z,10.00
2023-02-03T07:14:42.790Z,9.35
2023-02-03T07:17:09.349Z,9.78
2023-02-03T07:19:35.889Z,9.81
2023-02-03T07:22:02.438Z,9.45
2023-02-03T07:24:28.947Z,9.82
2023-02-03T07:26:55.483Z,9.77
2023-02-03T07:29:22.045Z,9.69
2023-02-03T07:31:48.687Z,9.77
2023-02-03T07:34:16.400Z,9.82
2023-02-03T07:36:43.117Z,9.74
2023-02-03T07:39:09.743Z,9.95
2023-02-03T07:41:36.497Z,10.01
2023-02-03T07:44:03.195Z,9.89
2023-02-03T07:46:30.000Z,9.97
2023-02-03T07:48:56.646Z,9.87
2023-02-03T07:51:23.249Z,9.82
2023-02-03T07:53:49.870Z,9.89
2023-02-03T07:56:16.481Z,9.87
2023-02-03T07:58:43.087Z,9.43
2023-02-03T08:01:12.476Z,9.96
2023-02-03T08:03:39.213Z,9.78
2023-02-03T08:06:06.244Z,9.84
2023-02-03T08:08:32.985Z,9.85
2023-02-03T08:10:59.608Z,9.95
2023-02-03T08:13:26.240Z,9.84
2023-02-03T08:15:52.881Z,9.50
2023-02-03T08:18:19.906Z,9.87
2023-02-03T08:20:48.006Z,9.94
2023-02-03T08:23:14.947Z,9.89
2023-02-03T08:25:41.416Z,9.37
2023-02-03T08:28:08.087Z,9.82
2023-02-03T08:30:34.792Z,9.74
2023-02-03T08:33:01.357Z,9.98
2023-02-03T08:35:28.278Z,10.02
2023-02-03T08:37:55.536Z,10.02
2023-02-03T08:40:22.169Z,9.85
2023-02-03T08:42:48.822Z,9.99
2023-02-03T08:45:15.410Z,9.45
2023-02-03T08:47:41.958Z,10.02
2023-02-03T08:50:09.613Z,9.88
2023-02-03T08:52:36.290Z,9.59
2023-02-03T08:55:02.972Z,9.92
2023-02-03T08:57:33.269Z,10.09
2023-02-03T08:59:59.958Z,10.03
2023-02-03T09:02:26.708Z,10.02
2023-02-03T09:04:53.346Z,10.19
2023-02-03T09:07:20.101Z,10.05
2023-02-03T09:09:46.668Z,10.30
2023-02-03T09:12:13.356Z,10.35
2023-02-03T09:14:40.035Z,10.28
2023-02-03T09:17:08.309Z,10.18
2023-02-03T09:19:36.545Z,10.29
2023-02-03T09:22:03.675Z,10.29
2023-02-03T09:24:30.646Z,10.14
2023-02-03T09:26:57.522Z,10.49
2023-02-03T09:29:24.249Z,10.59
2023-02-03T09:31:53.760Z,9.96
2023-02-03T09:34:21.241Z,10.65
2023-02-03T09:36:48.163Z,10.51
2023-02-03T09:39:15.185Z,10.49
2023-02-03T09:42:06.673Z,10.67
2023-02-03T09:44:46.442Z,10.70
2023-02-03T09:47:21.758Z,10.22
2023-02-03T09:50:01.251Z,10.76
2023-02-03T09:52:41.780Z,10.64
2023-02-03T09:55:28.661Z,10.79
2023-02-03T09:58:14.292Z,10.79
2023-02-03T10:01:01.073Z,10.86
2023-02-03T10:03:51.496Z,10.82
2023-02-03T10:06:33.631Z,10.76
2023-02-03T10:09:03.008Z,10.88
2023-02-03T10:11:49.629Z,10.69
2023-02-03T10:14:50.200Z,10.85
2023-02-03T10:17:40.033Z,10.86
2023-02-03T10:20:17.049Z,10.67
2023-02-03T10:22:52.113Z,10.66
2023-02-03T10:25:20.693Z,10.80
2023-02-03T10:27:49.160Z,10.31
2023-02-03T10:30:28.785Z,10.20
2023-02-03T10:33:13.821Z,10.22
2023-02-03T10:36:00.309Z,10.29
2023-02-03T10:38:35.977Z,10.83
2023-02-03T10:41:03.771Z,10.76
2023-02-03T10:43:47.508Z,10.65
2023-02-03T10:46:27.340Z,10.75
2023-02-03T10:48:54.131Z,10.76
2023-02-03T10:51:32.086Z,10.94
2023-02-03T10:54:00.255Z,10.71
2023-02-03T10:56:38.326Z,10.70
2023-02-03T10:59:06.514Z,10.84
2023-02-03T11:01:46.209Z,10.67
2023-02-03T11:04:27.828Z,10.38
2023-02-03T11:07:06.806Z,10.63
2023-02-03T11:09:33.417Z,10.52
2023-02-03T11:12:07.052Z,10.68
2023-02-03T11:14:44.212Z,10.43
2023-02-03T11:17:27.068Z,10.62
2023-02-03T11:19:55.028Z,10.73
2023-02-03T11:22:31.996Z,10.61
2023-02-03T11:25:01.332Z,10.59
2023-02-03T11:27:31.881Z,10.73
2023-02-03T11:30:16.947Z,10.44
2023-02-03T11:32:46.763Z,10.42
2023-02-03T11:35:16.344Z,10.70
2023-02-03T11:37:48.336Z,10.67
2023-02-03T11:40:14.905Z,10.70
2023-02-03T11:42:43.720Z,10.60
2023-02-03T11:45:13.483Z,10.82
2023-02-03T11:47:47.761Z,10.35
2023-02-03T11:50:33.572Z,10.90
2023-02-03T11:53:24.427Z,10.90
2023-02-03T11:56:15.949Z,10.90
2023-02-03T11:58:54.512Z,10.58
2023-02-03T12:01:42.452Z,10.93
2023-02-03T12:04:33.765Z,10.94
2023-02-03T12:07:32.358Z,10.95
2023-02-03T12:10:28.018Z,11.11
2023-02-03T12:13:16.428Z,11.16
2023-02-03T12:16:01.517Z,11.16
2023-02-03T12:18:40.869Z,11.21
2023-02-03T12:21:21.417Z,11.12
2023-02-03T12:24:03.356Z,11.32
2023-02-03T12:26:35.927Z,11.36
2023-02-03T12:29:14.856Z,11.38
2023-02-03T12:31:50.876Z,11.46
2023-02-03T12:34:55.909Z,11.50
2023-02-03T12:37:30.639Z,11.18
2023-02-03T12:40:16.065Z,11.72
2023-02-03T12:42:50.660Z,11.74
2023-02-03T12:45:26.743Z,11.70
2023-02-03T12:48:12.074Z,11.20
2023-02-03T12:50:46.011Z,11.69
2023-02-03T12:53:30.852Z,11.78
2023-02-03T12:56:07.292Z,11.54
2023-02-03T12:58:41.877Z,11.34
2023-02-03T13:01:20.993Z,11.22
2023-02-03T13:04:00.090Z,11.17
2023-02-03T13:06:46.882Z,11.27
2023-02-03T13:09:42.001Z,11.17
2023-02-03T13:12:25.448Z,11.48
2023-02-03T13:15:30.536Z,11.71
2023-02-03T13:18:05.619Z,11.55
2023-02-03T13:20:36.033Z,11.16
2023-02-03T13:23:10.517Z,11.06
2023-02-03T13:25:39.952Z,10.94
2023-02-03T13:28:22.704Z,10.63
2023-02-03T13:31:11.030Z,10.74
2023-02-03T13:33:59.393Z,10.71
2023-02-03T13:36:44.457Z,10.64
2023-02-03T13:39:19.650Z,10.58
2023-02-03T13:41:54.157Z,10.53
2023-02-03T13:44:29.389Z,10.38
2023-02-03T13:47:00.164Z,9.69
2023-02-03T13:49:32.765Z,10.32
2023-02-03T13:51:59.511Z,10.34
2023-02-03T13:54:36.141Z,10.20
2023-02-03T13:57:19.266Z,10.17
2023-02-03T13:59:46.441Z,10.10
2023-02-03T14:02:19.172Z,10.11
2023-02-03T14:04:45.858Z,10.07
2023-02-03T14:07:38.323Z,9.78
2023-02-03T14:10:13.979Z,10.17
2023-02-03T14:12:49.586Z,10.18
2023-02-03T14:15:25.601Z,10.14
2023-02-03T14:17:58.172Z,10.14
2023-02-03T14:20:27.770Z,10.29
2023-02-03T14:23:06.682Z,10.16
2023-02-03T14:25:46.731Z,10.34
2023-02-03T14:28:21.171Z,10.25
2023-02-03T14:31:10.403Z,10.40
2023-02-03T14:33:54.059Z,10.26
2023-02-03T14:36:50.516Z,10.01
2023-02-03T14:39:20.052Z,10.49
2023-02-03T14:42:18.532Z,10.42
2023-02-03T14:45:06.975Z,10.54
2023-02-03T14:47:33.647Z,10.55
2023-02-03T14:50:17.435Z,10.40
2023-02-03T14:53:12.023Z,10.59
2023-02-03T14:56:03.939Z,10.50
2023-02-03T14:58:36.640Z,10.11
2023-02-03T15:01:03.956Z,10.64
2023-02-03T15:03:31.215Z,10.08
2023-02-03T15:06:03.725Z,10.59
2023-02-03T15:08:44.430Z,10.62
2023-02-03T15:11:31.007Z,10.19
2023-02-03T15:14:21.908Z,10.53
2023-02-03T15:16:54.538Z,10.04
2023-02-03T15:19:22.905Z,10.54
2023-02-03T15:21:49.637Z,10.34
2023-02-03T15:24:21.441Z,10.03
2023-02-03T15:26:50.954Z,10.48
2023-02-03T15:29:22.689Z,9.93
2023-02-03T15:31:53.668Z,10.38
2023-02-03T15:34:32.938Z,10.21
2023-02-03T15:37:06.541Z,10.19
2023-02-03T15:39:49.153Z,10.40
2023-02-03T15:42:27.297Z,10.22
2023-02-03T15:45:05.322Z,10.19
2023-02-03T15:48:06.410Z,10.13
2023-02-03T15:50:47.815Z,10.29
2023-02-03T15:53:22.509Z,10.05
2023-02-03T15:55:56.296Z,9.67
2023-02-03T15:58:32.562Z,10.01
2023-02-03T16:01:03.942Z,10.06
2023-02-03T16:03:36.499Z,10.23
2023-02-03T16:06:18.536Z,10.06
2023-02-03T16:08:48.123Z,9.93
2023-02-03T16:11:37.291Z,10.05
2023-02-03T16:14:11.064Z,9.94
2023-02-03T16:17:04.431Z,9.92
2023-02-03T16:19:38.266Z,9.81
2023-02-03T16:22:05.043Z,9.66
2023-02-03T16:24:40.996Z,9.81
2023-02-03T16:27:27.881Z,9.89
2023-02-03T16:30:33.810Z,9.44
2023-02-03T16:33:31.068Z,9.60
2023-02-03T16:36:19.942Z,9.63
2023-02-03T16:39:09.181Z,9.83
2023-02-03T16:41:55.961Z,9.75
2023-02-03T16:44:41.166Z,9.71
2023-02-03T16:47:48.273Z,9.83
2023-02-03T16:50:39.795Z,9.61
2023-02-03T16:53:13.075Z,9.61
2023-02-03T16:55:41.140Z,9.27
2023-02-03T16:58:08.668Z,9.79
2023-02-03T17:00:35.339Z,9.73
2023-02-03T17:03:05.229Z,9.72
2023-02-03T17:05:32.116Z,9.58
2023-02-03T17:07:58.925Z,9.17
2023-02-03T17:10:26.443Z,9.41
2023-02-03T17:12:53.080Z,9.41
2023-02-03T17:15:19.641Z,9.30
2023-02-03T17:17:46.217Z,9.30
2023-02-03T17:20:12.950Z,9.25
2023-02-03T17:22:39.527Z,9.07
2023-02-03T17:25:06.434Z,8.87
2023-02-03T17:27:33.222Z,9.23
2023-02-03T17:29:59.831Z,9.09
2023-02-03T17:32:26.415Z,9.18
2023-02-03T17:34:52.915Z,9.35
2023-02-03T17:37:19.531Z,9.28
2023-02-03T17:53:30.776Z,9.21
2023-02-03T17:55:57.908Z,8.84
2023-02-03T17:58:24.433Z,9.12
2023-02-03T18:00:50.970Z,9.14
2023-02-03T18:03:17.563Z,9.01
2023-02-03T18:05:53.283Z,8.72
2023-02-03T18:08:20.515Z,8.75
2023-02-03T18:10:50.921Z,9.03
2023-02-03T18:13:18.269Z,9.02
2023-02-03T18:15:45.020Z,9.21
2023-02-03T18:18:11.674Z,8.52
2023-02-03T18:20:38.307Z,8.92
2023-02-03T18:23:08.930Z,9.05
2023-02-03T18:25:36.094Z,8.88
2023-02-03T18:28:02.927Z,9.01
2023-02-03T18:30:29.876Z,9.00
2023-02-03T18:32:57.462Z,9.05
2023-02-03T18:35:24.024Z,8.55
2023-02-03T18:37:51.650Z,8.91
2023-02-03T18:40:18.514Z,8.35
2023-02-03T18:42:45.079Z,9.10
2023-02-03T18:45:12.693Z,8.63
2023-02-03T18:47:39.427Z,8.99
2023-02-03T18:50:06.772Z,9.01
2023-02-03T18:52:33.458Z,8.99
2023-02-03T18:54:59.976Z,8.99
2023-02-03T18:57:26.666Z,8.55
2023-02-03T18:59:53.213Z,8.88
2023-02-03T19:02:21.508Z,9.00
2023-02-03T19:04:48.121Z,8.99
2023-02-03T19:07:14.610Z,8.92
2023-02-03T19:09:41.147Z,8.94
2023-02-03T19:12:08.042Z,8.96
2023-02-03T19:14:35.323Z,9.12
2023-02-03T19:17:03.724Z,8.80
2023-02-03T19:19:30.377Z,9.11
2023-02-03T19:21:58.411Z,8.93
2023-02-03T19:24:26.725Z,8.95
2023-02-03T19:26:54.160Z,9.09
2023-02-03T19:29:20.727Z,8.90
2023-02-03T19:31:47.428Z,8.96
2023-02-03T19:34:16.191Z,9.08
2023-02-03T19:36:42.914Z,9.12
2023-02-03T19:39:10.605Z,8.87
2023-02-03T19:41:37.416Z,8.85
2023-02-03T19:44:05.728Z,8.98
2023-02-03T19:46:37.104Z,8.61
2023-02-03T19:49:06.519Z,9.06
2023-02-03T19:51:34.153Z,8.84
2023-02-03T19:54:00.958Z,8.55
2023-02-03T19:56:27.856Z,8.83
2023-02-03T19:58:54.485Z,9.03
2023-02-03T20:01:22.779Z,9.00
2023-02-03T20:03:50.204Z,8.86
2023-02-03T20:06:17.418Z,8.50
2023-02-03T20:08:44.356Z,8.75
2023-02-03T20:11:10.905Z,8.71
2023-02-03T20:13:37.531Z,8.86
2023-02-03T20:16:04.436Z,8.40
2023-02-03T20:18:31.091Z,8.79
2023-02-03T20:20:58.022Z,8.46
2023-02-03T20:23:24.590Z,8.35
2023-02-03T20:25:55.476Z,8.53
2023-02-03T20:28:24.325Z,8.86
2023-02-03T20:30:52.350Z,8.98
2023-02-03T20:33:19.130Z,9.06
2023-02-03T20:35:45.729Z,8.65
2023-02-03T20:38:13.138Z,9.01
2023-02-03T20:40:39.661Z,8.96
2023-02-03T20:43:16.439Z,9.01
2023-02-03T20:45:43.877Z,7.99
2023-02-03T20:48:12.273Z,8.55
2023-02-03T20:50:42.621Z,8.85
2023-02-03T20:53:21.862Z,8.48
2023-02-03T20:55:49.545Z,8.64
2023-02-03T20:58:28.170Z,8.56
2023-02-03T21:00:57.276Z,8.92
2023-02-03T21:03:43.577Z,8.23
2023-02-03T21:06:17.428Z,9.09
2023-02-03T21:08:45.354Z,9.02
2023-02-03T21:11:20.720Z,8.63
2023-02-03T21:13:49.688Z,8.99
2023-02-03T21:16:19.635Z,9.06
2023-02-03T21:18:53.809Z,9.09
2023-02-03T21:21:28.898Z,9.06
2023-02-03T21:23:55.841Z,8.91
2023-02-03T21:26:25.307Z,9.16
2023-02-03T21:28:54.085Z,9.15
2023-02-03T21:31:26.931Z,8.55
2023-02-03T21:33:56.179Z,8.91
2023-02-03T21:36:34.910Z,9.10
2023-02-03T21:39:02.430Z,8.52
2023-02-03T21:41:35.182Z,9.00
2023-02-03T21:44:01.790Z,9.06
2023-02-03T21:46:32.975Z,8.76
2023-02-03T21:49:01.542Z,8.63
2023-02-03T21:51:33.553Z,9.06
2023-02-03T21:54:14.543Z,8.94
2023-02-03T21:56:42.416Z,9.12
2023-02-03T21:59:17.536Z,8.58
2023-02-03T22:01:44.565Z,8.68
2023-02-03T22:04:11.086Z,9.10
2023-02-03T22:06:40.598Z,9.02
2023-02-03T22:09:11.946Z,9.05
2023-02-03T22:11:38.518Z,8.86
2023-02-03T22:14:05.086Z,8.96
2023-02-03T22:16:31.793Z,8.91
2023-02-03T22:18:58.369Z,9.10
2023-02-03T22:21:25.379Z,8.97
2023-02-03T22:23:52.037Z,8.88
2023-02-03T22:26:19.390Z,8.19
2023-02-03T22:28:46.408Z,8.73
2023-02-03T22:31:13.373Z,8.62
2023-02-03T22:33:41.352Z,9.06
2023-02-03T22:36:09.987Z,9.04
2023-02-03T22:38:37.508Z,8.91
2023-02-03T22:41:04.095Z,8.48
2023-02-03T22:43:31.347Z,8.79
2023-02-03T22:45:58.519Z,8.72
2023-02-03T22:48:25.126Z,8.47
2023-02-03T22:50:51.619Z,8.43
2023-02-03T22:53:18.384Z,8.45
2023-02-03T22:55:44.904Z,8.03
2023-02-03T22:58:11.610Z,8.47
2023-02-03T23:00:38.254Z,8.35
2023-02-03T23:03:05.950Z,8.31
2023-02-03T23:05:32.708Z,8.40
2023-02-03T23:07:59.618Z,8.56
2023-02-03T23:10:30.781Z,8.47
2023-02-03T23:13:00.498Z,7.94
2023-02-03T23:15:28.081Z,8.09
2023-02-03T23:17:54.800Z,8.41
2023-02-03T23:20:21.983Z,8.47
2023-02-03T23:22:48.808Z,8.35
2023-02-03T23:25:15.379Z,8.35
2023-02-03T23:27:41.983Z,8.21
2023-02-03T23:30:09.310Z,8.28
2023-02-03T23:32:35.910Z,8.45
2023-02-03T23:35:21.444Z,8.09
2023-02-03T23:37:48.023Z,8.51
2023-02-03T23:40:14.819Z,8.00
2023-02-03T23:42:41.507Z,8.02
2023-02-03T23:45:11.587Z,8.15
2023-02-03T23:47:43.071Z,8.42
2023-02-03T23:50:12.699Z,8.56
2023-02-03T23:52:39.425Z,8.45
2023-02-03T23:55:08.945Z,8.60
2023-02-03T23:57:35.481Z,8.45
